createdAt,value
2022-11-02T00:01:40.720Z,100952.44
2022-11-02T00:06:44.521Z,100948.56
2022-11-02T00:11:48.515Z,100938.69
2022-11-02T00:16:51.109Z,100941.41
2022-11-02T00:21:54.657Z,100935.91
2022-11-02T00:26:58.593Z,100947.31
2022-11-02T00:32:01.773Z,100950.94
2022-11-02T00:37:04.308Z,100939.97
2022-11-02T00:42:08.489Z,100937.69
2022-11-02T00:47:12.556Z,100928.75
2022-11-02T00:52:15.176Z,100911.97
2022-11-02T00:57:23.872Z,100898.38
2022-11-02T01:02:26.586Z,100897.16
2022-11-02T01:07:29.971Z,100886.59
2022-11-02T01:12:33.936Z,100881.50
2022-11-02T01:17:36.789Z,100872.19
2022-11-02T01:22:40.743Z,100878.50
2022-11-02T01:27:44.646Z,100856.31
2022-11-02T01:32:47.748Z,100846.31
2022-11-02T01:37:50.341Z,100819.84
2022-11-02T01:42:54.303Z,100794.03
2022-11-02T01:47:56.953Z,100774.75
2022-11-02T01:53:00.615Z,100752.66
2022-11-02T01:58:09.624Z,100636.25
2022-11-02T02:03:16.663Z,100615.13
2022-11-02T02:08:23.420Z,100609.25
2022-11-02T02:13:27.981Z,100603.38
2022-11-02T02:18:34.375Z,100591.53
2022-11-02T02:23:56.024Z,100597.06
2022-11-02T02:29:02.585Z,100586.38
2022-11-02T02:34:10.250Z,100597.22
2022-11-02T02:39:17.477Z,100577.38
2022-11-02T02:44:23.023Z,100574.53
2022-11-02T02:49:29.343Z,100563.63
2022-11-02T02:54:33.749Z,100545.00
2022-11-02T02:59:41.353Z,100526.22
2022-11-02T03:04:44.937Z,100525.28
2022-11-02T03:09:52.188Z,100517.47
2022-11-02T03:15:07.281Z,100509.91
2022-11-02T03:20:12.968Z,100505.28
2022-11-02T03:25:18.251Z,100499.63
2022-11-02T03:30:27.302Z,100502.56
2022-11-02T03:35:34.761Z,100501.50
2022-11-02T03:40:40.919Z,100503.06
2022-11-02T03:45:48.558Z,100491.59
2022-11-02T03:50:52.499Z,100473.84
2022-11-02T03:56:00.779Z,100473.19
2022-11-02T04:01:08.149Z,100475.69
2022-11-02T04:06:12.788Z,100464.19
2022-11-02T04:11:34.404Z,100462.56
2022-11-02T04:16:43.847Z,100464.31
2022-11-02T04:22:15.081Z,100456.53
2022-11-02T04:27:21.330Z,100452.91
2022-11-02T04:32:44.005Z,100456.28
2022-11-02T04:38:07.998Z,100446.25
2022-11-02T04:43:13.836Z,100441.09
2022-11-02T04:48:18.798Z,100426.81
2022-11-02T04:53:21.806Z,100417.97
2022-11-02T04:58:24.536Z,100412.44
2022-11-02T05:03:28.757Z,100390.09
2022-11-02T05:08:31.668Z,100384.88
2022-11-02T05:13:34.352Z,100369.47
2022-11-02T05:18:38.944Z,100353.59
2022-11-02T05:23:41.644Z,100352.53
2022-11-02T05:28:45.171Z,100333.97
2022-11-02T05:33:49.233Z,100310.91
2022-11-02T05:38:56.297Z,100310.81
2022-11-02T05:44:00.090Z,100306.97
2022-11-02T05:49:06.162Z,100278.19
2022-11-02T05:54:08.754Z,100300.59
2022-11-02T05:59:11.329Z,100303.16
2022-11-02T06:04:15.333Z,100308.84
2022-11-02T06:09:17.980Z,100313.81
2022-11-02T06:14:20.581Z,100317.66
2022-11-02T06:19:24.533Z,100328.22
2022-11-02T06:24:27.132Z,100349.47
2022-11-02T06:29:29.777Z,100357.19
2022-11-02T06:34:33.703Z,100365.25
2022-11-02T06:44:39.972Z,100374.63
2022-11-02T06:49:43.945Z,100373.66
2022-11-02T06:54:46.516Z,100371.38
2022-11-02T06:59:53.804Z,100375.50
2022-11-02T07:04:58.305Z,100408.50
2022-11-02T07:10:00.992Z,100424.81
2022-11-02T07:15:03.605Z,100449.72
2022-11-02T07:20:10.492Z,100453.38
2022-11-02T07:25:13.145Z,100476.53
2022-11-02T07:30:16.024Z,100486.16
2022-11-02T07:35:20.272Z,100503.94
2022-11-02T07:40:22.854Z,100501.19
2022-11-02T07:45:25.992Z,100523.28
2022-11-02T07:50:30.045Z,100557.72
2022-11-02T07:55:33.305Z,100582.47
2022-11-02T08:00:38.374Z,100613.78
2022-11-02T08:05:43.442Z,100654.88
2022-11-02T08:10:47.066Z,100678.16
2022-11-02T08:15:50.595Z,100711.22
2022-11-02T08:20:56.575Z,100741.75
2022-11-02T08:26:00.350Z,100776.28
2022-11-02T08:31:03.015Z,100802.94
2022-11-02T08:36:07.839Z,100819.84
2022-11-02T08:41:10.584Z,100848.41
2022-11-02T08:46:15.161Z,100880.31
2022-11-02T08:51:20.039Z,100914.16
2022-11-02T08:56:22.629Z,100928.97
2022-11-02T09:01:25.410Z,100952.06
2022-11-02T09:06:29.462Z,100975.69
2022-11-02T09:11:32.176Z,100991.47
2022-11-02T09:16:40.218Z,101013.81
2022-11-02T09:21:45.413Z,101067.63
2022-11-02T09:26:49.396Z,101112.09
2022-11-02T09:31:52.001Z,101132.06
2022-11-02T09:36:55.936Z,101156.47
2022-11-02T09:42:05.366Z,101176.97
2022-11-02T09:47:55.999Z,101193.41
2022-11-02T09:52:37.142Z,101206.66
2022-11-02T09:57:40.970Z,101212.00
2022-11-02T10:02:53.435Z,101216.09
2022-11-02T10:08:10.710Z,101226.75
2022-11-02T10:13:25.561Z,101235.94
2022-11-02T10:18:29.881Z,101236.03
2022-11-02T10:23:36.637Z,101244.78
2022-11-02T10:28:41.078Z,101252.97
2022-11-02T10:33:43.736Z,101251.97
2022-11-02T10:38:55.753Z,101255.47
2022-11-02T10:44:13.115Z,101271.06
2022-11-02T10:49:24.760Z,101262.06
2022-11-02T10:54:34.267Z,101261.91
2022-11-02T10:59:37.166Z,101269.06
2022-11-02T11:04:41.124Z,101269.72
2022-11-02T11:09:51.678Z,101282.81
2022-11-02T11:20:34.039Z,101272.25
2022-11-02T11:25:38.055Z,101261.53
2022-11-02T11:30:59.808Z,101252.03
2022-11-02T11:36:02.927Z,101249.25
2022-11-02T11:41:06.947Z,101232.94
2022-11-02T11:46:09.849Z,101211.78
2022-11-02T11:51:31.473Z,101216.38
2022-11-02T11:56:36.129Z,101196.06
2022-11-02T12:01:41.910Z,101196.75
2022-11-02T12:06:50.111Z,101175.91
2022-11-02T12:12:00.071Z,101148.91
2022-11-02T12:17:15.381Z,101152.66
2022-11-02T12:22:22.443Z,101138.38
2022-11-02T12:27:34.922Z,101139.69
2022-11-02T12:32:47.610Z,101117.38
2022-11-02T12:38:01.149Z,101130.97
2022-11-02T12:43:16.388Z,101114.97
2022-11-02T12:48:24.955Z,101101.03
2022-11-02T12:53:42.022Z,101083.09
2022-11-02T12:58:45.967Z,101076.16
2022-11-02T13:03:52.400Z,101060.16
2022-11-02T13:08:56.068Z,101057.09
2022-11-02T13:14:00.809Z,101054.38
2022-11-02T13:19:04.112Z,101051.94
2022-11-02T13:24:12.391Z,101045.59
2022-11-02T13:29:20.210Z,101044.88
2022-11-02T13:34:32.663Z,101049.50
2022-11-02T13:39:38.690Z,101051.13
2022-11-02T13:45:24.552Z,101041.59
2022-11-02T13:50:27.292Z,101045.03
2022-11-02T13:55:42.980Z,101024.22
2022-11-02T14:00:49.959Z,101030.16
2022-11-02T14:05:56.425Z,101025.41
2022-11-02T14:11:26.551Z,101031.25
2022-11-02T14:16:44.287Z,101035.00
2022-11-02T14:22:06.639Z,101036.31
2022-11-02T14:27:30.432Z,101037.03
2022-11-02T14:32:44.288Z,101036.03
2022-11-02T14:38:04.862Z,101027.59
2022-11-02T14:43:22.378Z,101016.22
2022-11-02T14:48:28.487Z,101017.38
2022-11-02T14:53:33.890Z,101015.34
2022-11-02T14:58:42.601Z,101020.38
2022-11-02T15:03:48.259Z,101022.84
2022-11-02T15:08:53.878Z,101020.75
2022-11-02T15:13:56.497Z,101017.72
2022-11-02T15:19:33.178Z,101027.16
2022-11-02T15:24:37.417Z,101023.22
2022-11-02T15:29:44.295Z,101023.53
2022-11-02T15:34:49.413Z,101020.50
2022-11-02T15:39:54.783Z,101021.94
2022-11-02T15:45:20.363Z,101013.53
2022-11-02T15:50:40.264Z,101014.31
2022-11-02T15:55:53.506Z,101012.75
2022-11-02T16:01:06.671Z,101016.03
2022-11-02T16:06:10.244Z,101012.69
2022-11-02T16:11:17.360Z,101020.19
2022-11-02T16:16:20.888Z,101010.34
2022-11-02T16:21:23.510Z,101014.09
2022-11-02T16:26:29.690Z,101006.31
2022-11-02T16:31:32.310Z,101018.72
2022-11-02T16:36:37.135Z,101016.41
2022-11-02T16:41:41.881Z,101019.81
2022-11-02T16:46:49.784Z,101023.81
2022-11-02T16:51:53.553Z,101016.44
2022-11-02T16:57:00.475Z,101017.88
2022-11-02T17:02:04.025Z,101007.84
2022-11-02T17:07:13.334Z,101006.72
2022-11-02T17:12:17.890Z,101002.50
2022-11-02T17:17:39.416Z,100999.50
2022-11-02T17:22:50.822Z,101002.53
2022-11-02T17:27:55.938Z,100994.00
2022-11-02T17:32:58.920Z,100981.34
2022-11-02T17:38:02.388Z,100979.63
2022-11-02T17:43:06.599Z,100973.59
2022-11-02T17:48:10.789Z,100968.31
2022-11-02T17:53:14.234Z,100958.69
2022-11-02T17:58:18.473Z,100960.84
2022-11-02T18:03:25.448Z,100966.31
2022-11-02T18:08:31.081Z,100965.47
2022-11-02T18:13:35.010Z,100956.97
2022-11-02T18:18:37.602Z,100946.41
2022-11-02T18:23:40.571Z,100945.31
2022-11-02T18:28:44.628Z,100948.03
2022-11-02T18:33:47.500Z,100940.88
2022-11-02T18:38:50.081Z,100937.41
2022-11-02T18:43:57.884Z,100942.03
2022-11-02T18:49:03.696Z,100929.78
2022-11-02T18:54:07.125Z,100920.44
2022-11-02T18:59:11.150Z,100916.69
2022-11-02T19:04:17.365Z,100907.06
2022-11-02T19:09:23.107Z,100893.41
2022-11-02T19:14:28.011Z,100881.81
2022-11-02T19:19:30.944Z,100884.47
2022-11-02T19:24:33.724Z,100882.31
2022-11-02T19:29:37.801Z,100871.56
2022-11-02T19:34:40.679Z,100863.75
2022-11-02T19:39:43.248Z,100852.91
2022-11-02T19:44:47.250Z,100842.06
2022-11-02T19:49:49.993Z,100846.41
2022-11-02T19:54:52.611Z,100846.59
2022-11-02T19:59:56.621Z,100837.38
2022-11-02T20:04:59.426Z,100841.25
2022-11-02T20:10:03.127Z,100836.69
2022-11-02T20:15:10.728Z,100828.72
2022-11-02T20:20:13.633Z,100823.38
2022-11-02T20:25:16.518Z,100811.38
2022-11-02T20:30:22.198Z,100801.19
2022-11-02T20:35:25.828Z,100787.06
2022-11-02T20:40:29.314Z,100778.91
2022-11-02T20:45:33.735Z,100771.59
2022-11-02T20:50:36.662Z,100757.63
2022-11-02T20:55:39.249Z,100755.16
2022-11-02T21:00:43.239Z,100741.72
2022-11-02T21:05:46.069Z,100737.34
2022-11-02T21:10:55.978Z,100715.84
2022-11-02T21:16:04.574Z,100699.94
2022-11-02T21:21:08.885Z,100682.41
2022-11-02T21:26:12.893Z,100676.47
2022-11-02T21:31:19.194Z,100661.91
2022-11-02T21:36:21.796Z,100665.59
2022-11-02T21:41:26.448Z,100644.47
2022-11-02T21:46:30.406Z,100645.44
2022-11-02T21:51:34.362Z,100643.00
2022-11-02T21:56:37.989Z,100629.00
2022-11-02T22:01:49.029Z,100615.03
2022-11-02T22:06:52.274Z,100612.41
2022-11-02T22:12:08.868Z,100590.66
2022-11-02T22:17:35.776Z,100593.50
2022-11-02T22:22:36.727Z,100585.53
2022-11-02T22:27:39.306Z,100574.13
2022-11-02T22:32:43.243Z,100572.63
2022-11-02T22:38:03.655Z,100556.59
2022-11-02T22:43:06.688Z,100556.06
2022-11-02T22:48:10.815Z,100547.81
2022-11-02T22:53:13.405Z,100542.41
2022-11-02T22:58:15.966Z,100532.56
2022-11-02T23:03:19.978Z,100522.72
2022-11-02T23:08:22.629Z,100507.81
2022-11-02T23:13:25.750Z,100505.00
2022-11-02T23:18:52.598Z,100483.81
2022-11-02T23:24:12.667Z,100488.16
2022-11-02T23:29:32.742Z,100469.97
2022-11-02T23:34:36.648Z,100459.31
2022-11-02T23:39:51.112Z,100453.28
2022-11-02T23:44:53.773Z,100437.78
2022-11-02T23:49:57.685Z,100435.22
2022-11-02T23:55:17.588Z,100430.09
